Time;durP1;ratioP1;P1;durP2;ratioP2;P2;SDS_P1;SDS_P2;PMS_P1;PMS_P2;Temp;Humidity;BMP_temperature;BMP_pressure;BME280_temperature;BME280_humidity;BME280_pressure;Samples;Min_cycle;Max_cycle;Signal;HPM_P1;HPM_P2
2022/01/25 00:24:16;;;;;;;34.20;11.38;;;4.70;80.20;;;;;;4174960;28;20049;-33
2022/01/25 00:25:03;;;;;;;26.10;11.65;;;4.60;80.40;;;;;;4177860;28;20017;-33
2022/01/25 00:27:01;;;;;;;31.52;12.32;;;4.70;80.50;;;;;;4174388;28;20048;-33
2022/01/25 00:29:13;;;;;;;33.08;11.32;;;4.70;80.60;;;;;;4172751;28;20459;-33
2022/01/25 00:31:14;;;;;;;30.25;12.02;;;4.70;80.60;;;;;;4173909;28;20075;-33
2022/01/25 00:33:15;;;;;;;26.65;11.68;;;4.70;80.70;;;;;;4169352;28;20033;-33
2022/01/25 00:35:15;;;;;;;28.92;12.05;;;4.70;80.60;;;;;;4177439;28;20086;-33
2022/01/25 00:37:16;;;;;;;26.65;11.13;;;4.70;80.70;;;;;;4173430;28;20029;-33
2022/01/25 00:39:16;;;;;;;28.55;12.13;;;4.70;80.70;;;;;;4169439;28;20036;-33
2022/01/25 00:41:17;;;;;;;31.25;12.05;;;4.70;80.70;;;;;;4174548;28;20029;-34
2022/01/25 00:43:19;;;;;;;39.92;11.75;;;4.70;81.60;;;;;;4174416;28;20032;-33
2022/01/25 00:45:21;;;;;;;27.70;11.27;;;4.70;80.80;;;;;;4176235;28;20044;-33
2022/01/25 00:47:21;;;;;;;31.45;12.25;;;4.70;80.90;;;;;;4178484;28;20488;-32
2022/01/25 00:49:27;;;;;;;28.88;11.40;;;4.70;80.90;;;;;;4168698;28;20043;-33
2022/01/25 00:55:50;;;;;;;28.73;11.95;;;4.70;81.10;;;;;;4176256;28;20032;-32
2022/01/25 00:57:50;;;;;;;24.80;11.07;;;4.70;81.10;;;;;;4173922;28;20484;-35
2022/01/25 00:59:51;;;;;;;28.35;11.27;;;4.70;81.10;;;;;;4176276;28;20025;-33
2022/01/25 01:01:53;;;;;;;30.08;10.45;;;4.70;81.20;;;;;;4173784;28;20033;-33
2022/01/25 01:03:54;;;;;;;26.27;11.30;;;4.80;81.30;;;;;;4166431;28;20030;-33
2022/01/25 01:05:55;;;;;;;27.98;10.65;;;4.70;81.20;;;;;;4170285;28;20292;-33
2022/01/25 01:07:55;;;;;;;31.13;11.57;;;4.80;81.30;;;;;;4176303;28;20017;-32
2022/01/25 01:09:58;;;;;;;25.65;10.88;;;4.70;81.20;;;;;;4167843;28;20021;-33
2022/01/25 01:12:04;;;;;;;27.77;10.07;;;4.80;81.30;;;;;;4174801;28;20527;-33
2022/01/25 01:15:18;;;;;;;28.13;10.88;;;4.80;81.30;;;;;;4176967;28;20085;-33
2022/01/25 01:17:06;;;;;;;28.77;10.57;;;4.80;81.20;;;;;;4161143;28;20045;-33
2022/01/25 01:31:01;;;;;;;30.15;10.30;;;4.80;81.20;;;;;;4169785;28;20049;-33
2022/01/25 01:33:29;;;;;;;27.65;9.95;;;4.80;81.20;;;;;;4176250;28;20504;-33
2022/01/25 01:40:11;;;;;;;28.33;10.32;;;4.80;81.20;;;;;;4176316;28;20029;-33
2022/01/25 01:44:38;;;;;;;28.85;11.32;;;4.80;81.30;;;;;;4177146;28;20070;-33
2022/01/25 01:46:57;;;;;;;28.58;11.35;;;4.80;81.30;;;;;;4172026;28;20483;-32
2022/01/25 01:49:00;;;;;;;32.03;10.50;;;4.90;81.30;;;;;;4172417;28;20125;-33
2022/01/25 01:51:16;;;;;;;;;;;4.90;81.40;;;;;;4163451;28;20041;-32
2022/01/25 01:53:16;;;;;;;23.23;10.35;;;4.90;81.50;;;;;;4176525;28;19978;-32
2022/01/25 01:55:17;;;;;;;28.23;9.57;;;4.90;81.30;;;;;;4169718;28;20025;-33
2022/01/25 01:57:17;;;;;;;25.70;10.85;;;4.90;81.30;;;;;;4166726;28;20057;-33
2022/01/25 01:59:18;;;;;;;25.08;9.65;;;4.90;81.30;;;;;;4168034;28;20029;-33
2022/01/25 02:01:19;;;;;;;31.63;11.05;;;4.90;81.30;;;;;;4164001;28;20029;-33
2022/01/25 02:03:20;;;;;;;26.65;10.15;;;4.90;81.30;;;;;;4164443;28;20029;-33
2022/01/25 02:05:20;;;;;;;26.83;10.77;;;4.90;81.20;;;;;;4175474;28;20178;-33
2022/01/25 02:07:21;;;;;;;32.60;11.48;;;4.90;81.20;;;;;;4172865;28;20051;-33
2022/01/25 02:09:21;;;;;;;27.92;10.52;;;4.90;81.30;;;;;;4175930;28;20444;-33
2022/01/25 02:11:22;;;;;;;32.58;11.23;;;4.90;81.30;;;;;;4173159;28;20017;-33
2022/01/25 02:13:23;;;;;;;31.38;11.05;;;4.90;81.40;;;;;;4181595;23;20045;-35
2022/01/25 02:15:25;;;;;;;26.35;10.25;;;4.90;81.40;;;;;;4175408;28;20052;-34
2022/01/25 02:24:23;;;;;;;31.60;12.38;;;4.90;81.40;;;;;;4175388;28;20025;-34
2022/01/25 02:26:24;;;;;;;30.13;10.30;;;4.90;81.40;;;;;;4172339;28;20122;-34
2022/01/25 02:28:29;;;;;;;29.98;10.70;;;4.90;81.40;;;;;;4174511;28;20035;-34
2022/01/25 02:30:30;;;;;;;28.88;10.25;;;4.90;81.50;;;;;;4166186;28;20567;-34
2022/01/25 02:32:30;;;;;;;30.55;10.88;;;4.90;81.50;;;;;;4170087;28;20039;-34
2022/01/25 02:34:31;;;;;;;26.17;10.55;;;4.90;81.50;;;;;;4168275;28;20042;-34
2022/01/25 02:36:32;;;;;;;29.35;10.20;;;4.90;81.50;;;;;;4175930;28;20087;-34
2022/01/25 02:38:33;;;;;;;26.05;10.20;;;5.00;81.50;;;;;;4176340;28;20110;-33
2022/01/25 02:40:34;;;;;;;31.83;9.95;;;4.90;81.60;;;;;;4173778;28;20029;-33
2022/01/25 02:42:35;;;;;;;26.95;11.05;;;5.00;81.50;;;;;;4176604;28;20112;-34
2022/01/25 02:44:36;;;;;;;27.05;10.27;;;5.00;81.60;;;;;;4175088;28;20736;-34
2022/01/25 02:48:57;;;;;;;28.52;11.15;;;5.00;81.50;;;;;;4178930;28;20056;-35
2022/01/25 02:50:59;;;;;;;29.10;11.05;;;5.00;81.50;;;;;;4176659;28;20033;-34
2022/01/25 02:53:00;;;;;;;30.17;11.43;;;5.00;81.50;;;;;;4178759;28;20025;-34
2022/01/25 02:55:00;;;;;;;29.75;9.93;;;5.00;81.50;;;;;;4170244;28;20029;-34
2022/01/25 02:57:01;;;;;;;28.17;10.50;;;5.00;81.50;;;;;;4176575;28;20091;-34
2022/01/25 02:59:03;;;;;;;38.28;11.15;;;5.00;81.50;;;;;;4178958;28;20029;-35
2022/01/25 03:01:03;;;;;;;40.03;10.18;;;5.00;81.50;;;;;;4173779;28;20029;-34
2022/01/25 03:03:04;;;;;;;26.25;9.18;;;5.00;81.60;;;;;;4173314;28;20074;-34
2022/01/25 03:05:05;;;;;;;31.25;9.98;;;5.00;81.50;;;;;;4175557;28;20032;-34
2022/01/25 03:07:07;;;;;;;29.42;9.68;;;5.00;81.50;;;;;;4175079;28;20025;-33
2022/01/25 03:09:07;;;;;;;25.50;9.68;;;5.00;81.60;;;;;;4172915;28;20115;-34
2022/01/25 03:11:08;;;;;;;28.08;9.70;;;5.00;81.60;;;;;;4178274;28;20099;-34
2022/01/25 03:13:14;;;;;;;35.88;9.48;;;5.00;81.60;;;;;;4178145;28;20036;-34
2022/01/25 03:17:25;;;;;;;22.70;8.40;;;5.00;81.60;;;;;;4178896;28;20018;-34
2022/01/25 03:21:37;;;;;;;21.80;7.80;;;5.00;81.60;;;;;;4177010;28;20029;-34
2022/01/25 03:23:38;;;;;;;24.70;8.38;;;5.10;81.60;;;;;;4172378;28;20539;-34
2022/01/25 03:25:39;;;;;;;26.17;8.02;;;5.10;81.60;;;;;;4175581;28;20033;-34
2022/01/25 03:27:39;;;;;;;24.25;8.43;;;5.10;81.60;;;;;;4169535;28;20424;-34
2022/01/25 03:29:40;;;;;;;28.77;7.38;;;5.10;82.30;;;;;;4177112;28;20068;-34
2022/01/25 03:31:40;;;;;;;29.27;7.75;;;5.10;81.60;;;;;;4170991;28;20432;-34
2022/01/25 03:33:41;;;;;;;25.52;7.07;;;5.10;81.60;;;;;;4176954;28;20033;-34
2022/01/25 03:35:42;;;;;;;27.48;7.25;;;5.10;81.50;;;;;;4168162;28;20161;-34
2022/01/25 03:37:43;;;;;;;37.63;7.53;;;5.10;81.60;;;;;;4176179;28;20021;-34
2022/01/25 03:39:43;;;;;;;28.23;7.38;;;5.10;81.50;;;;;;4173656;28;20037;-34
2022/01/25 03:41:44;;;;;;;28.00;6.35;;;5.20;81.60;;;;;;4177951;28;20496;-34
2022/01/25 03:43:51;;;;;;;27.88;6.70;;;5.10;81.40;;;;;;4175660;28;20043;-34
2022/01/25 03:46:02;;;;;;;26.80;6.65;;;5.10;81.40;;;;;;4176431;28;20758;-34
2022/01/25 03:50:12;;;;;;;27.98;6.25;;;5.20;81.30;;;;;;4175737;28;20029;-34
2022/01/25 03:52:13;;;;;;;20.45;5.97;;;5.20;81.30;;;;;;4177436;28;20150;-34
2022/01/25 03:54:14;;;;;;;18.67;5.15;;;5.20;81.20;;;;;;4172488;28;20049;-34
2022/01/25 03:56:15;;;;;;;18.58;5.63;;;5.20;81.20;;;;;;4174150;28;20044;-34
2022/01/25 03:58:15;;;;;;;17.42;5.05;;;5.20;81.20;;;;;;4173768;28;20114;-34
2022/01/25 04:00:17;;;;;;;28.83;4.78;;;5.20;81.20;;;;;;4174543;28;20025;-34
2022/01/25 04:02:18;;;;;;;25.08;4.78;;;5.20;81.20;;;;;;4177594;28;20028;-34
2022/01/25 04:04:22;;;;;;;23.00;4.75;;;5.20;81.20;;;;;;4169871;28;20551;-33
2022/01/25 04:06:23;;;;;;;26.15;4.65;;;5.20;81.20;;;;;;4171546;28;20103;-36
2022/01/25 04:08:24;;;;;;;16.90;4.25;;;5.20;81.20;;;;;;4176195;28;20033;-34
2022/01/25 04:10:24;;;;;;;19.25;4.75;;;5.20;81.20;;;;;;4173618;28;20078;-34
2022/01/25 04:12:25;;;;;;;21.50;4.60;;;5.20;81.20;;;;;;4177930;28;20558;-34
2022/01/25 04:14:26;;;;;;;19.48;3.92;;;5.20;81.10;;;;;;4173445;28;20036;-34
2022/01/25 04:16:32;;;;;;;19.55;5.07;;;5.20;81.10;;;;;;4176805;28;20052;-34
2022/01/25 04:18:49;;;;;;;14.88;3.65;;;5.20;81.10;;;;;;4177709;28;20123;-34
2022/01/25 04:21:12;;;;;;;22.85;4.65;;;5.20;81.10;;;;;;4173482;28;20025;-34
2022/01/25 04:25:31;;;;;;;19.40;3.45;;;5.20;81.00;;;;;;4172723;28;20036;-35
2022/01/25 04:27:32;;;;;;;22.65;3.97;;;5.20;80.90;;;;;;4173749;28;20033;-34
2022/01/25 04:29:33;;;;;;;13.57;3.72;;;5.30;80.90;;;;;;4172693;28;20037;-34
2022/01/25 04:31:35;;;;;;;23.38;3.65;;;5.30;80.90;;;;;;4174505;28;20233;-36
2022/01/25 04:33:42;;;;;;;21.17;3.55;;;5.30;80.80;;;;;;4172912;28;20036;-34
2022/01/25 04:35:56;;;;;;;16.55;3.70;;;5.30;80.80;;;;;;4177019;28;20089;-34
2022/01/25 04:49:36;;;;;;;10.88;3.05;;;5.30;80.50;;;;;;4170372;28;20074;-33
2022/01/25 04:52:03;;;;;;;10.90;2.75;;;5.40;80.50;;;;;;4177408;28;20471;-32
2022/01/25 04:56:24;;;;;;;19.95;3.15;;;5.40;80.30;;;;;;4176520;28;20400;-33
2022/01/25 04:58:46;;;;;;;21.25;3.17;;;5.40;80.20;;;;;;4172198;28;20029;-32
2022/01/25 05:00:48;;;;;;;11.40;2.58;;;5.40;80.80;;;;;;4170843;28;20203;-32
2022/01/25 05:03:09;;;;;;;17.38;3.15;;;5.40;80.10;;;;;;4172544;28;20028;-32
2022/01/25 05:05:15;;;;;;;15.07;2.70;;;5.40;80.10;;;;;;4171648;28;20040;-33
2022/01/25 05:09:26;;;;;;;13.63;2.80;;;5.40;79.90;;;;;;4170552;28;20032;-33
2022/01/25 05:11:30;;;;;;;12.10;2.90;;;5.50;79.90;;;;;;4174067;28;20856;-32
2022/01/25 05:18:22;;;;;;;11.20;2.42;;;5.50;79.80;;;;;;4173857;28;20044;-32
2022/01/25 05:22:42;;;;;;;16.70;2.75;;;5.50;79.60;;;;;;4174634;28;20150;-32
2022/01/25 05:24:44;;;;;;;13.50;3.00;;;5.50;79.60;;;;;;4170056;28;20021;-33
2022/01/25 05:26:44;;;;;;;15.70;2.92;;;5.50;79.50;;;;;;4168731;28;20039;-34
2022/01/25 05:28:45;;;;;;;21.42;3.38;;;5.50;79.50;;;;;;4175238;28;20090;-32
2022/01/25 05:30:46;;;;;;;38.30;4.65;;;5.50;79.40;;;;;;4168434;28;20034;-32
2022/01/25 05:32:46;;;;;;;13.50;2.90;;;5.50;79.40;;;;;;4169289;28;20074;-32
2022/01/25 05:34:47;;;;;;;10.00;2.80;;;5.50;79.50;;;;;;4170469;28;20623;-31
2022/01/25 05:36:47;;;;;;;11.57;2.38;;;5.50;79.50;;;;;;4173358;28;20033;-33
2022/01/25 05:38:48;;;;;;;12.15;3.13;;;5.50;79.50;;;;;;4164335;28;20528;-32
2022/01/25 05:40:57;;;;;;;15.30;3.10;;;5.60;79.60;;;;;;4172591;28;20087;-32
2022/01/25 05:45:57;;;;;;;22.45;3.13;;;5.50;79.60;;;;;;4143771;28;20037;-33
2022/01/25 05:47:42;;;;;;;19.80;4.05;;;5.50;79.70;;;;;;4168915;28;20037;-32
2022/01/25 05:49:43;;;;;;;16.30;2.73;;;5.50;79.70;;;;;;4166781;28;20037;-31
2022/01/25 05:51:44;;;;;;;14.73;3.30;;;5.50;79.80;;;;;;4172308;28;20021;-35
2022/01/25 05:53:45;;;;;;;21.98;2.67;;;5.50;80.00;;;;;;4173749;28;20057;-33
2022/01/25 05:55:46;;;;;;;12.60;2.47;;;5.50;80.10;;;;;;4173547;28;20032;-32
2022/01/25 05:57:46;;;;;;;15.52;2.90;;;5.50;80.20;;;;;;4171743;28;20692;-34
2022/01/25 05:59:47;;;;;;;18.50;3.58;;;5.40;80.20;;;;;;4171540;28;20025;-32
2022/01/25 06:01:48;;;;;;;18.27;3.03;;;5.40;80.30;;;;;;4175506;28;20481;-32
2022/01/25 06:03:49;;;;;;;13.48;3.25;;;5.50;80.50;;;;;;4168867;28;20052;-32
2022/01/25 06:05:50;;;;;;;18.63;2.78;;;5.40;80.50;;;;;;4172409;28;20685;-32
2022/01/25 06:07:50;;;;;;;15.50;3.17;;;5.40;80.50;;;;;;4169094;28;20021;-32
2022/01/25 06:09:51;;;;;;;15.48;3.45;;;5.40;80.60;;;;;;4174026;28;20037;-34
2022/01/25 06:11:53;;;;;;;19.00;3.10;;;5.40;80.60;;;;;;4175029;28;20119;-32
2022/01/25 06:13:53;;;;;;;15.32;3.00;;;5.40;80.60;;;;;;4177483;28;20048;-33
2022/01/25 06:15:54;;;;;;;12.60;2.85;;;5.40;80.70;;;;;;4172253;28;20022;-32
2022/01/25 06:17:55;;;;;;;18.17;2.67;;;5.50;80.80;;;;;;4169473;28;20416;-32
2022/01/25 06:19:55;;;;;;;17.17;2.53;;;5.40;80.80;;;;;;4173988;28;20079;-33
2022/01/25 06:21:56;;;;;;;23.80;3.75;;;5.40;80.80;;;;;;4177541;28;20576;-33
2022/01/25 06:23:56;;;;;;;14.80;2.88;;;5.40;80.80;;;;;;4174301;28;20036;-32
2022/01/25 06:25:57;;;;;;;19.75;3.08;;;5.50;81.00;;;;;;4174442;28;20037;-32
2022/01/25 06:27:57;;;;;;;10.50;3.10;;;5.50;81.00;;;;;;4177038;28;20068;-32
2022/01/25 06:29:58;;;;;;;16.00;3.22;;;5.40;81.00;;;;;;4173651;28;20029;-32
2022/01/25 06:32:00;;;;;;;18.05;3.25;;;5.40;81.10;;;;;;4158190;28;20044;-32
2022/01/25 06:34:00;;;;;;;19.30;3.33;;;5.40;81.10;;;;;;4177629;28;20029;-33
2022/01/25 06:36:01;;;;;;;13.73;3.08;;;5.40;81.10;;;;;;4170553;28;20040;-32
2022/01/25 06:38:01;;;;;;;23.67;4.10;;;5.50;81.20;;;;;;4170899;28;20021;-32
2022/01/25 06:40:04;;;;;;;27.98;5.07;;;5.40;81.20;;;;;;4176226;28;20075;-34
2022/01/25 06:42:05;;;;;;;15.67;3.63;;;5.40;81.20;;;;;;4177706;28;20419;-35
2022/01/25 06:44:06;;;;;;;11.20;3.17;;;5.40;81.30;;;;;;4169868;28;20067;-33
2022/01/25 06:46:07;;;;;;;23.00;3.80;;;5.40;81.40;;;;;;4175325;28;20040;-33
2022/01/25 06:48:07;;;;;;;16.35;3.40;;;5.40;81.30;;;;;;4174078;28;20439;-34
2022/01/25 06:50:08;;;;;;;21.73;4.03;;;5.40;81.40;;;;;;4173706;28;20036;-32
2022/01/25 06:52:10;;;;;;;16.70;4.15;;;5.40;81.50;;;;;;4176036;28;20497;-33
2022/01/25 06:54:11;;;;;;;20.13;3.30;;;5.40;81.50;;;;;;4172992;28;20536;-33
2022/01/25 06:56:12;;;;;;;17.23;3.17;;;5.40;81.50;;;;;;4177800;28;20045;-37
2022/01/25 06:58:12;;;;;;;19.83;3.65;;;5.40;81.60;;;;;;4178191;28;20044;-32
2022/01/25 07:00:15;;;;;;;16.40;3.67;;;5.40;81.60;;;;;;4173824;28;20021;-34
2022/01/25 07:02:16;;;;;;;23.60;3.40;;;5.40;81.60;;;;;;4177201;28;20017;-33
2022/01/25 07:04:16;;;;;;;16.35;3.20;;;5.40;81.70;;;;;;4173986;28;20040;-33
2022/01/25 07:06:17;;;;;;;20.58;4.10;;;5.40;81.70;;;;;;4171842;28;20028;-32
2022/01/25 07:08:18;;;;;;;19.40;4.18;;;5.40;81.70;;;;;;4177726;28;20029;-32
2022/01/25 07:10:19;;;;;;;19.58;3.60;;;5.40;81.80;;;;;;4172359;28;20087;-34
2022/01/25 07:12:19;;;;;;;15.98;3.40;;;5.40;81.80;;;;;;4171981;28;20112;-32
2022/01/25 07:14:20;;;;;;;12.95;3.75;;;5.40;81.80;;;;;;4172441;28;20068;-32
2022/01/25 07:16:21;;;;;;;21.75;4.85;;;5.40;81.90;;;;;;4171429;28;20092;-32
2022/01/25 07:18:21;;;;;;;24.85;4.35;;;5.40;81.90;;;;;;4174560;28;20068;-32
2022/01/25 07:20:22;;;;;;;15.13;3.35;;;5.40;82.00;;;;;;4175621;28;20021;-33
2022/01/25 07:22:23;;;;;;;19.52;4.43;;;5.40;82.00;;;;;;4174471;28;20396;-33
2022/01/25 07:24:23;;;;;;;23.15;3.90;;;5.40;82.00;;;;;;4173067;28;20037;-32
2022/01/25 07:26:24;;;;;;;23.52;4.00;;;5.40;82.00;;;;;;4173588;28;20032;-32
2022/01/25 07:28:25;;;;;;;21.10;4.45;;;5.40;82.00;;;;;;4174176;28;20032;-32
2022/01/25 07:30:25;;;;;;;20.88;3.97;;;5.40;82.10;;;;;;4168902;28;20106;-32
2022/01/25 07:32:26;;;;;;;19.17;4.25;;;5.40;82.00;;;;;;4173079;28;20281;-32
2022/01/25 07:34:27;;;;;;;16.23;4.13;;;5.50;82.10;;;;;;4178032;28;20025;-33
2022/01/25 07:36:28;;;;;;;21.33;3.67;;;5.50;82.10;;;;;;4174452;28;20025;-34
2022/01/25 07:38:28;;;;;;;19.08;3.33;;;5.40;82.00;;;;;;4175083;28;20032;-33
2022/01/25 07:40:30;;;;;;;18.63;3.45;;;5.50;82.10;;;;;;4172546;28;20025;-34
2022/01/25 07:42:34;;;;;;;18.63;3.72;;;5.50;82.20;;;;;;4174795;28;20108;-35
2022/01/25 07:44:38;;;;;;;11.02;2.95;;;5.50;82.20;;;;;;4168925;28;20211;-34
2022/01/25 07:46:39;;;;;;;21.33;3.78;;;5.50;82.20;;;;;;4173061;28;20037;-34
2022/01/25 07:48:39;;;;;;;21.77;3.70;;;5.50;82.20;;;;;;4174413;28;20082;-34
2022/01/25 07:50:40;;;;;;;19.98;4.10;;;5.50;82.20;;;;;;4174627;28;20028;-34
2022/01/25 07:52:40;;;;;;;17.27;4.05;;;5.50;82.20;;;;;;4174855;28;20035;-34
2022/01/25 07:54:42;;;;;;;15.85;3.45;;;5.50;82.30;;;;;;4171854;28;20460;-34
2022/01/25 07:56:42;;;;;;;24.60;3.42;;;5.50;82.30;;;;;;4169467;28;20033;-34
2022/01/25 07:58:43;;;;;;;14.95;3.50;;;5.50;82.30;;;;;;4172317;28;20066;-34
2022/01/25 08:00:43;;;;;;;16.40;3.50;;;5.50;82.40;;;;;;4173788;28;20032;-34
2022/01/25 08:02:44;;;;;;;19.42;4.03;;;5.50;82.40;;;;;;4174983;28;20041;-35
2022/01/25 08:04:45;;;;;;;24.05;3.78;;;5.50;82.40;;;;;;4172676;28;20576;-34
2022/01/25 08:06:46;;;;;;;24.33;4.43;;;5.50;82.40;;;;;;4168121;28;20079;-34
2022/01/25 08:08:46;;;;;;;15.60;4.22;;;5.50;82.40;;;;;;4159244;28;20040;-32
2022/01/25 08:10:47;;;;;;;17.75;4.60;;;5.50;82.50;;;;;;4171088;28;20401;-32
2022/01/25 08:12:48;;;;;;;13.88;3.70;;;5.50;82.50;;;;;;4189075;23;20056;-33
2022/01/25 08:14:49;;;;;;;17.35;3.90;;;5.50;82.50;;;;;;4184392;28;20052;-33
2022/01/25 08:16:50;;;;;;;15.10;3.92;;;5.50;82.50;;;;;;4189857;28;20111;-32
2022/01/25 08:18:50;;;;;;;20.63;3.95;;;5.50;82.50;;;;;;4187557;28;20103;-33
2022/01/25 08:20:51;;;;;;;21.50;4.43;;;5.60;82.60;;;;;;4185197;28;20062;-35
2022/01/25 08:22:52;;;;;;;23.38;4.90;;;5.50;82.50;;;;;;4190486;28;20526;-34
2022/01/25 08:24:53;;;;;;;13.20;3.55;;;5.50;82.50;;;;;;4187712;28;20029;-34
2022/01/25 08:26:53;;;;;;;11.55;3.92;;;5.60;82.60;;;;;;4181576;28;20048;-33
2022/01/25 08:28:54;;;;;;;13.60;3.97;;;5.60;82.60;;;;;;4186061;28;20629;-33
2022/01/25 08:30:54;;;;;;;22.23;3.75;;;5.60;82.70;;;;;;4183010;28;20047;-33
2022/01/25 08:32:55;;;;;;;25.00;3.65;;;5.60;82.70;;;;;;4181040;28;20020;-33
2022/01/25 08:34:57;;;;;;;12.18;3.28;;;5.60;82.70;;;;;;4192965;28;20044;-33
2022/01/25 08:36:58;;;;;;;18.35;3.33;;;5.60;82.70;;;;;;4192069;28;20032;-33
2022/01/25 08:38:59;;;;;;;17.42;3.85;;;5.60;82.80;;;;;;4192080;28;20032;-33
2022/01/25 08:40:59;;;;;;;17.35;4.05;;;5.60;82.70;;;;;;4190384;28;20036;-34
2022/01/25 08:43:01;;;;;;;19.20;4.05;;;5.60;82.80;;;;;;4191992;28;20146;-33
2022/01/25 08:45:02;;;;;;;15.98;3.80;;;5.60;82.80;;;;;;4190030;28;20036;-33
2022/01/25 08:47:03;;;;;;;14.60;3.72;;;5.60;82.80;;;;;;4193961;28;20066;-33
2022/01/25 08:49:04;;;;;;;12.98;3.92;;;5.60;82.80;;;;;;4190319;28;20036;-33
2022/01/25 08:51:05;;;;;;;19.52;3.95;;;5.70;82.80;;;;;;4193069;28;20024;-33
2022/01/25 08:53:07;;;;;;;17.15;3.83;;;5.70;82.80;;;;;;4185368;28;20060;-33
2022/01/25 08:55:08;;;;;;;18.35;4.88;;;5.70;82.80;;;;;;4183165;28;20024;-33
2022/01/25 08:57:09;;;;;;;13.43;3.90;;;5.70;82.80;;;;;;4184080;28;20442;-34
2022/01/25 08:59:10;;;;;;;15.57;4.50;;;5.70;82.90;;;;;;4186171;28;20095;-33
2022/01/25 09:01:11;;;;;;;15.50;4.50;;;5.70;82.90;;;;;;4181657;28;20046;-33
2022/01/25 09:03:12;;;;;;;18.75;3.97;;;5.70;82.90;;;;;;4185282;28;20488;-34
2022/01/25 09:05:12;;;;;;;22.92;4.95;;;5.70;82.90;;;;;;4179522;28;20032;-33
2022/01/25 09:07:13;;;;;;;18.23;4.13;;;5.70;82.90;;;;;;4178585;28;20046;-34
2022/01/25 09:09:14;;;;;;;12.98;4.65;;;5.70;83.00;;;;;;4192616;28;20564;-33
2022/01/25 09:11:14;;;;;;;19.67;4.63;;;5.80;83.00;;;;;;4185255;28;20028;-33
2022/01/25 09:13:15;;;;;;;12.60;3.65;;;5.80;83.10;;;;;;4189225;28;20487;-33
2022/01/25 09:15:15;;;;;;;19.23;4.50;;;5.80;83.00;;;;;;4186136;28;20033;-33
2022/01/25 09:17:16;;;;;;;18.27;4.30;;;5.80;83.00;;;;;;4188622;28;20480;-33
2022/01/25 09:19:17;;;;;;;17.63;3.95;;;5.80;83.00;;;;;;4187629;28;20082;-33
2022/01/25 09:21:17;;;;;;;19.08;3.75;;;5.80;82.40;;;;;;4188658;28;20023;-33
2022/01/25 09:23:19;;;;;;;11.52;4.50;;;5.80;83.00;;;;;;4182861;28;20371;-33
2022/01/25 09:25:20;;;;;;;20.63;5.72;;;5.80;83.00;;;;;;4179659;28;20483;-33
2022/01/25 09:27:20;;;;;;;21.05;4.78;;;5.80;83.00;;;;;;4185476;28;20286;-33
2022/01/25 09:29:21;;;;;;;17.08;4.70;;;5.80;83.00;;;;;;4177806;28;20434;-32
2022/01/25 09:31:22;;;;;;;13.40;4.05;;;5.80;83.10;;;;;;4179624;28;20025;-33
2022/01/25 09:33:23;;;;;;;17.90;4.13;;;5.80;83.10;;;;;;4190981;28;20395;-32
2022/01/25 09:35:24;;;;;;;19.00;3.95;;;5.80;83.20;;;;;;4188154;28;20036;-32
2022/01/25 09:37:25;;;;;;;24.20;4.10;;;5.80;83.20;;;;;;4189448;28;20020;-33
2022/01/25 09:39:25;;;;;;;17.73;3.60;;;5.80;83.20;;;;;;4185979;28;20044;-33
2022/01/25 09:41:28;;;;;;;19.38;4.85;;;5.80;83.30;;;;;;4188144;28;20032;-33
2022/01/25 09:43:30;;;;;;;13.73;3.42;;;5.80;83.40;;;;;;4187252;28;20020;-33
2022/01/25 09:45:31;;;;;;;14.85;3.80;;;5.80;83.50;;;;;;4184895;28;20147;-33
2022/01/25 09:47:31;;;;;;;19.65;4.28;;;5.80;83.50;;;;;;4190415;28;20446;-33
2022/01/25 09:49:33;;;;;;;17.50;3.83;;;5.80;83.60;;;;;;4191678;28;20569;-33
2022/01/25 09:51:33;;;;;;;16.02;4.00;;;5.80;83.60;;;;;;4189523;28;20043;-33
2022/01/25 09:53:34;;;;;;;15.88;4.35;;;5.90;83.80;;;;;;4184325;28;20492;-33
2022/01/25 09:55:36;;;;;;;18.33;5.28;;;5.90;83.80;;;;;;4187298;28;20043;-33
2022/01/25 09:57:37;;;;;;;18.92;4.93;;;5.90;83.80;;;;;;4188093;28;20113;-34
2022/01/25 09:59:37;;;;;;;20.52;4.88;;;5.90;84.20;;;;;;4181606;28;20514;-33
2022/01/25 10:01:38;;;;;;;18.50;5.45;;;5.90;83.90;;;;;;4188316;28;20103;-33
2022/01/25 10:03:41;;;;;;;27.50;6.30;;;6.00;84.00;;;;;;4192299;28;20035;-33
2022/01/25 10:05:44;;;;;;;19.30;5.60;;;6.00;84.10;;;;;;4186305;28;20805;-32
2022/01/25 10:07:54;;;;;;;;;;;6.00;84.00;;;;;;4169424;28;20381;-33
2022/01/25 10:09:54;;;;;;;16.40;6.18;;;6.00;84.10;;;;;;4187475;28;19920;-33
2022/01/25 10:11:55;;;;;;;18.80;5.82;;;6.00;83.90;;;;;;4189573;28;20036;-33
2022/01/25 10:13:58;;;;;;;22.90;5.60;;;6.00;83.80;;;;;;4190262;28;20108;-33
2022/01/25 10:16:30;;;;;;;22.48;5.88;;;6.00;83.80;;;;;;4191144;28;20021;-33
2022/01/25 10:18:44;;;;;;;23.48;6.80;;;6.00;83.80;;;;;;4189301;28;20039;-33
2022/01/25 10:20:47;;;;;;;13.88;5.30;;;6.10;83.90;;;;;;4190914;28;20064;-33
2022/01/25 10:22:47;;;;;;;35.97;5.18;;;6.10;84.00;;;;;;4181642;28;20493;-33
2022/01/25 10:24:48;;;;;;;25.73;6.25;;;6.10;84.00;;;;;;4186764;28;20484;-33
2022/01/25 10:26:56;;;;;;;16.05;5.30;;;6.10;84.00;;;;;;4187724;28;20028;-32
2022/01/25 10:28:57;;;;;;;19.58;5.10;;;6.10;84.00;;;;;;4202824;28;20036;-33
2022/01/25 10:31:04;;;;;;;18.58;4.70;;;6.10;84.00;;;;;;4184689;28;20451;-33
2022/01/25 10:33:18;;;;;;;18.75;4.88;;;6.10;83.90;;;;;;4189028;28;20039;-33
2022/01/25 10:35:18;;;;;;;27.83;5.35;;;6.10;83.90;;;;;;4191124;28;20043;-33
2022/01/25 10:37:23;;;;;;;20.92;4.93;;;6.10;83.90;;;;;;4183549;28;20389;-33
2022/01/25 10:39:27;;;;;;;19.00;4.60;;;6.10;83.90;;;;;;4181894;28;20024;-33
2022/01/25 10:41:28;;;;;;;18.20;4.45;;;6.10;83.80;;;;;;4202760;28;20035;-32
2022/01/25 10:43:29;;;;;;;18.88;4.78;;;6.20;83.90;;;;;;4184843;28;20399;-33
2022/01/25 10:45:29;;;;;;;19.48;4.70;;;6.10;83.70;;;;;;4187736;28;20028;-33
2022/01/25 10:47:42;;;;;;;22.90;5.20;;;6.20;83.90;;;;;;4188413;28;20044;-33
2022/01/25 10:49:44;;;;;;;29.43;4.63;;;6.20;83.90;;;;;;4182314;28;20115;-33
2022/01/25 10:51:46;;;;;;;21.38;4.10;;;6.20;84.00;;;;;;4189845;28;20027;-32
2022/01/25 10:54:14;;;;;;;34.17;5.32;;;6.20;84.00;;;;;;4191955;28;20024;-33
2022/01/25 10:56:15;;;;;;;18.17;4.32;;;6.20;84.00;;;;;;4191868;28;20032;-33
2022/01/25 10:58:16;;;;;;;19.55;4.78;;;6.20;84.00;;;;;;4172216;28;20092;-33
2022/01/25 11:00:16;;;;;;;24.80;4.75;;;6.20;84.00;;;;;;4184211;28;20104;-32
2022/01/25 11:02:20;;;;;;;24.85;4.88;;;6.20;84.00;;;;;;4184868;28;20021;-32
2022/01/25 11:04:51;;;;;;;26.63;4.82;;;6.20;84.70;;;;;;4191268;28;20046;-33
2022/01/25 11:06:57;;;;;;;25.58;5.35;;;6.20;84.00;;;;;;4179952;28;20036;-33
2022/01/25 11:09:00;;;;;;;33.05;4.80;;;6.20;84.00;;;;;;4185279;28;20107;-34
2022/01/25 11:11:03;;;;;;;26.85;4.50;;;6.20;84.00;;;;;;4188077;28;20120;-32
2022/01/25 11:13:11;;;;;;;26.50;5.00;;;6.20;83.90;;;;;;4189157;28;20032;-33
2022/01/25 11:15:11;;;;;;;30.55;4.60;;;6.20;83.90;;;;;;4185234;28;20028;-33
2022/01/25 11:17:12;;;;;;;26.33;5.38;;;6.30;84.00;;;;;;4188855;28;20071;-33
2022/01/25 11:19:13;;;;;;;31.88;5.50;;;6.20;84.00;;;;;;4183520;28;20089;-33
2022/01/25 11:21:13;;;;;;;23.67;5.55;;;6.20;84.10;;;;;;4184719;28;20640;-33
2022/01/25 11:23:14;;;;;;;39.58;5.82;;;6.20;84.10;;;;;;4186614;28;20048;-33
2022/01/25 11:25:17;;;;;;;28.48;5.57;;;6.30;84.20;;;;;;4189232;28;20028;-35
2022/01/25 11:27:19;;;;;;;30.80;5.75;;;6.30;84.30;;;;;;4187752;28;20109;-33
2022/01/25 11:29:20;;;;;;;38.90;6.55;;;6.30;84.30;;;;;;4189414;28;20068;-35
2022/01/25 11:31:22;;;;;;;26.88;6.05;;;6.30;84.30;;;;;;4183522;28;20063;-33
2022/01/25 11:33:22;;;;;;;26.98;4.65;;;6.30;84.30;;;;;;4180501;28;20463;-33
2022/01/25 11:35:25;;;;;;;27.83;5.95;;;6.30;84.30;;;;;;4166803;28;20542;-33
2022/01/25 11:37:40;;;;;;;27.25;5.70;;;6.40;84.30;;;;;;4183664;28;20035;-34
2022/01/25 11:39:47;;;;;;;29.92;6.63;;;6.40;84.20;;;;;;4169485;28;20416;-33
2022/01/25 11:41:48;;;;;;;22.40;4.95;;;6.40;84.10;;;;;;4188974;28;20412;-33
2022/01/25 11:44:12;;;;;;;18.58;4.82;;;6.40;84.10;;;;;;4189615;28;20111;-33
2022/01/25 11:46:12;;;;;;;18.30;4.65;;;6.40;84.00;;;;;;4186034;28;20082;-33
2022/01/25 11:48:13;;;;;;;27.23;4.85;;;6.40;83.90;;;;;;4189443;28;20021;-33
2022/01/25 11:50:14;;;;;;;23.20;5.03;;;6.40;83.80;;;;;;4190158;28;20032;-34
2022/01/25 11:52:14;;;;;;;21.95;5.00;;;6.40;83.80;;;;;;4193924;28;20857;-33
2022/01/25 11:54:15;;;;;;;29.95;5.47;;;6.40;83.60;;;;;;4186842;28;20029;-32
2022/01/25 11:56:16;;;;;;;29.48;4.95;;;6.40;83.60;;;;;;4198297;28;20024;-33
2022/01/25 11:58:29;;;;;;;34.10;4.93;;;6.40;83.50;;;;;;4186850;28;20025;-33
2022/01/25 12:00:40;;;;;;;20.48;4.93;;;6.40;83.60;;;;;;4182779;28;20029;-33
2022/01/25 12:02:45;;;;;;;16.55;4.80;;;6.40;83.60;;;;;;4187258;28;20506;-33
2022/01/25 12:04:46;;;;;;;23.05;5.15;;;6.40;83.50;;;;;;4188705;28;20025;-33
2022/01/25 12:06:59;;;;;;;26.25;4.85;;;6.40;83.60;;;;;;4188195;28;20501;-34